createdAt,value
2018-09-20T00:01:09.184Z,4.70
2018-09-20T00:03:38.103Z,5.27
2018-09-20T00:06:07.192Z,5.13
2018-09-20T00:08:36.348Z,6.50
2018-09-20T00:11:05.373Z,7.20
2018-09-20T00:13:34.279Z,6.43
2018-09-20T00:16:03.365Z,3.80
2018-09-20T00:18:32.562Z,3.33
2018-09-20T00:21:01.488Z,3.23
2018-09-20T00:23:31.925Z,3.07
2018-09-20T00:26:01.008Z,3.60
2018-09-20T00:28:29.931Z,3.53
2018-09-20T00:30:58.966Z,3.17
2018-09-20T00:33:27.892Z,2.63
2018-09-20T00:35:57.104Z,3.53
2018-09-20T00:38:26.111Z,3.30
2018-09-20T00:40:55.479Z,4.10
2018-09-20T00:43:24.339Z,3.77
2018-09-20T00:45:53.519Z,4.30
2018-09-20T00:48:22.430Z,3.50
2018-09-20T00:50:51.371Z,3.93
2018-09-20T00:53:20.372Z,4.13
2018-09-20T00:55:49.318Z,3.77
2018-09-20T00:58:18.319Z,3.80
2018-09-20T01:00:47.435Z,4.43
2018-09-20T01:03:16.359Z,4.33
2018-09-20T01:05:45.311Z,4.77
2018-09-20T01:08:14.648Z,4.67
2018-09-20T01:10:43.523Z,4.67
2018-09-20T01:13:12.947Z,4.00
2018-09-20T01:15:42.246Z,4.57
2018-09-20T01:18:11.335Z,5.10
2018-09-20T01:20:40.448Z,4.30
2018-09-20T01:23:09.893Z,4.50
2018-09-20T01:25:38.850Z,5.87
2018-09-20T01:28:07.939Z,4.67
2018-09-20T01:30:37.483Z,5.10
2018-09-20T01:33:06.172Z,5.07
2018-09-20T01:35:35.126Z,5.00
2018-09-20T01:38:04.088Z,4.90
2018-09-20T01:40:32.940Z,6.10
2018-09-20T01:43:01.921Z,5.17
2018-09-20T01:45:31.043Z,5.47
2018-09-20T01:48:00.168Z,5.47
2018-09-20T01:50:29.164Z,5.53
2018-09-20T01:52:58.307Z,5.27
2018-09-20T01:55:27.302Z,5.30
2018-09-20T01:57:56.282Z,4.80
2018-09-20T02:00:25.431Z,5.03
2018-09-20T02:02:54.631Z,6.00
2018-09-20T02:05:23.633Z,5.10
2018-09-20T02:07:52.928Z,4.43
2018-09-20T02:10:21.943Z,5.03
2018-09-20T02:12:51.020Z,5.27
2018-09-20T02:15:20.195Z,5.43
2018-09-20T02:17:49.102Z,5.20
2018-09-20T02:20:18.184Z,5.50
2018-09-20T02:22:47.736Z,5.50
2018-09-20T02:25:16.992Z,5.70
2018-09-20T02:27:45.895Z,5.73
2018-09-20T02:30:15.196Z,6.43
2018-09-20T02:32:44.060Z,5.13
2018-09-20T02:35:12.992Z,5.70
2018-09-20T02:37:42.039Z,5.23
2018-09-20T02:40:11.663Z,5.47
2018-09-20T02:42:40.642Z,6.00
2018-09-20T02:45:09.907Z,6.57
2018-09-20T02:47:39.242Z,6.70
2018-09-20T02:50:08.251Z,5.70
2018-09-20T02:52:37.319Z,6.23
2018-09-20T02:55:06.295Z,5.90
2018-09-20T02:57:35.443Z,5.97
2018-09-20T03:00:04.979Z,5.47
2018-09-20T03:02:34.118Z,5.77
2018-09-20T03:05:03.927Z,5.47
2018-09-20T03:07:33.158Z,5.77
2018-09-20T03:10:02.136Z,5.30
2018-09-20T03:12:31.060Z,5.00
2018-09-20T03:15:00.442Z,5.53
2018-09-20T03:17:29.487Z,5.60
2018-09-20T03:19:58.339Z,5.30
2018-09-20T03:22:27.646Z,5.07
2018-09-20T03:24:56.815Z,4.37
2018-09-20T03:27:25.844Z,4.10
2018-09-20T03:29:54.881Z,3.60
2018-09-20T03:32:23.778Z,4.10
2018-09-20T03:34:52.672Z,3.93
2018-09-20T03:37:22.236Z,3.83
2018-09-20T03:39:51.413Z,4.07
2018-09-20T03:42:20.676Z,3.43
2018-09-20T03:44:49.910Z,3.57
2018-09-20T03:47:19.208Z,3.20
2018-09-20T03:49:48.099Z,3.23
2018-09-20T03:52:17.175Z,3.37
2018-09-20T03:54:46.228Z,3.60
2018-09-20T03:57:15.345Z,4.00
2018-09-20T03:59:44.422Z,3.60
2018-09-20T04:02:13.459Z,3.40
2018-09-20T04:04:42.536Z,3.87
2018-09-20T04:07:11.672Z,3.60
2018-09-20T04:09:40.720Z,3.50
2018-09-20T04:12:09.708Z,4.30
2018-09-20T04:14:38.876Z,4.00
2018-09-20T04:17:07.899Z,4.50
2018-09-20T04:19:36.768Z,4.23
2018-09-20T04:22:06.072Z,3.33
2018-09-20T04:24:34.954Z,4.03
2018-09-20T04:27:03.903Z,3.57
2018-09-20T04:29:32.992Z,4.10
2018-09-20T04:32:01.977Z,4.10
2018-09-20T04:34:30.890Z,3.73
2018-09-20T04:36:59.964Z,4.30
2018-09-20T04:39:28.907Z,3.43
2018-09-20T04:41:58.365Z,3.43
2018-09-20T04:44:27.403Z,3.63
2018-09-20T04:46:56.396Z,3.10
2018-09-20T04:49:25.621Z,3.93
2018-09-20T04:51:54.744Z,3.80
2018-09-20T04:54:23.932Z,3.83
2018-09-20T04:56:52.944Z,3.87
2018-09-20T04:59:22.373Z,4.23
2018-09-20T05:01:51.236Z,3.97
2018-09-20T05:04:20.335Z,3.77
2018-09-20T05:06:49.415Z,3.33
2018-09-20T05:09:18.621Z,3.87
2018-09-20T05:11:47.744Z,3.73
2018-09-20T05:14:18.440Z,4.10
2018-09-20T05:16:47.626Z,3.90
2018-09-20T05:19:16.703Z,4.03
2018-09-20T05:21:46.043Z,3.80
2018-09-20T05:24:14.908Z,3.70
2018-09-20T05:26:43.988Z,3.80
2018-09-20T05:29:13.290Z,3.80
2018-09-20T05:31:42.212Z,3.57
2018-09-20T05:34:11.244Z,3.83
2018-09-20T05:36:40.576Z,4.00
2018-09-20T05:39:10.407Z,3.53
2018-09-20T05:41:39.389Z,4.37
2018-09-20T05:44:08.650Z,3.93
2018-09-20T05:46:38.081Z,4.33
2018-09-20T05:49:07.016Z,3.93
2018-09-20T05:51:36.304Z,4.00
2018-09-20T05:54:05.135Z,4.57
2018-09-20T05:56:34.075Z,3.83
2018-09-20T05:59:03.072Z,3.80
2018-09-20T06:01:32.064Z,3.90
2018-09-20T06:04:01.140Z,3.70
2018-09-20T06:06:30.218Z,3.90
2018-09-20T06:09:03.276Z,3.97
2018-09-20T06:11:32.268Z,3.23
2018-09-20T06:14:01.149Z,3.10
2018-09-20T06:16:30.147Z,3.63
2018-09-20T06:18:59.182Z,3.60
2018-09-20T06:21:28.263Z,3.30
2018-09-20T06:23:57.299Z,3.47
2018-09-20T06:26:26.552Z,3.10
2018-09-20T06:28:55.670Z,3.27
2018-09-20T06:31:24.523Z,3.60
2018-09-20T06:33:53.664Z,2.70
2018-09-20T06:36:22.512Z,3.00
2018-09-20T06:38:51.440Z,2.90
2018-09-20T06:41:20.444Z,2.50
2018-09-20T06:43:49.327Z,2.70
2018-09-20T06:46:18.347Z,2.47
2018-09-20T06:48:47.501Z,2.33
2018-09-20T06:51:16.459Z,2.20
2018-09-20T06:53:45.399Z,2.60
2018-09-20T06:56:14.424Z,2.90
2018-09-20T06:58:43.393Z,2.77
2018-09-20T07:01:12.271Z,2.50
2018-09-20T07:03:41.280Z,3.03
2018-09-20T07:06:10.470Z,2.70
2018-09-20T07:08:39.398Z,2.43
2018-09-20T07:11:08.411Z,2.70
2018-09-20T07:13:37.361Z,3.13
2018-09-20T07:16:07.060Z,2.70
2018-09-20T07:18:36.175Z,2.80
2018-09-20T07:21:05.172Z,2.83
2018-09-20T07:23:34.194Z,2.50
2018-09-20T07:26:03.191Z,2.60
2018-09-20T07:28:32.008Z,2.67
2018-09-20T07:31:00.994Z,2.73
2018-09-20T07:33:30.468Z,2.93
2018-09-20T07:35:59.468Z,2.73
2018-09-20T07:38:28.451Z,2.70
2018-09-20T07:40:57.902Z,2.80
2018-09-20T07:43:26.836Z,2.13
2018-09-20T07:45:55.709Z,2.53
2018-09-20T07:48:24.883Z,3.60
2018-09-20T07:50:53.898Z,2.53
2018-09-20T07:53:22.834Z,2.17
2018-09-20T07:55:52.390Z,2.30
2018-09-20T07:58:21.318Z,2.53
2018-09-20T08:00:50.450Z,2.00
2018-09-20T08:03:19.621Z,2.77
2018-09-20T08:05:48.496Z,2.80
2018-09-20T08:08:17.436Z,2.60
2018-09-20T08:10:46.555Z,3.03
2018-09-20T08:13:15.601Z,2.67
2018-09-20T08:15:44.515Z,2.50
2018-09-20T08:18:13.727Z,2.67
2018-09-20T08:20:42.823Z,2.80
2018-09-20T08:23:11.847Z,3.07
2018-09-20T08:25:41.436Z,2.40
2018-09-20T08:28:10.400Z,2.63
2018-09-20T08:30:39.703Z,3.03
2018-09-20T08:33:08.847Z,3.00
2018-09-20T08:35:37.811Z,2.87
2018-09-20T08:38:06.731Z,3.10
2018-09-20T08:40:35.773Z,3.10
2018-09-20T08:43:04.776Z,2.70
2018-09-20T08:45:33.849Z,2.90
2018-09-20T08:48:03.223Z,3.40
2018-09-20T08:50:32.378Z,3.47
2018-09-20T08:53:01.412Z,3.37
2018-09-20T08:55:30.485Z,4.40
2018-09-20T08:57:59.508Z,3.27
2018-09-20T09:00:28.408Z,4.03
2018-09-20T09:02:57.453Z,3.63
2018-09-20T09:05:26.403Z,3.33
2018-09-20T09:07:55.367Z,3.40
2018-09-20T09:10:24.736Z,3.63
2018-09-20T09:12:53.594Z,3.90
2018-09-20T09:15:22.597Z,3.90
2018-09-20T09:17:51.660Z,3.63
2018-09-20T09:20:20.644Z,3.53
2018-09-20T09:22:49.759Z,4.17
2018-09-20T09:25:18.915Z,3.67
2018-09-20T09:27:47.967Z,3.90
2018-09-20T09:30:16.906Z,3.63
2018-09-20T09:32:46.114Z,4.20
2018-09-20T09:35:15.612Z,3.83
2018-09-20T09:37:44.532Z,3.17
2018-09-20T09:40:13.568Z,3.83
2018-09-20T09:42:42.544Z,2.87
2018-09-20T09:45:11.616Z,3.63
2018-09-20T09:47:40.807Z,3.43
2018-09-20T09:50:09.788Z,3.20
2018-09-20T09:52:39.164Z,3.77
2018-09-20T09:55:08.416Z,3.17
2018-09-20T09:57:37.591Z,3.10
2018-09-20T10:00:06.724Z,3.23
2018-09-20T10:02:36.874Z,3.17
2018-09-20T10:05:05.777Z,3.50
2018-09-20T10:07:34.724Z,3.50
2018-09-20T10:10:04.132Z,3.50
2018-09-20T10:12:32.992Z,3.00
2018-09-20T10:15:01.950Z,3.50
2018-09-20T10:17:31.081Z,3.80
2018-09-20T10:20:00.064Z,3.07
2018-09-20T10:22:28.961Z,3.53
2018-09-20T10:24:58.349Z,2.60
2018-09-20T10:27:27.585Z,3.43
2018-09-20T10:29:56.839Z,3.37
2018-09-20T10:32:26.092Z,2.90
2018-09-20T10:34:55.065Z,2.80
2018-09-20T10:37:51.166Z,3.07
2018-09-20T10:40:21.149Z,3.23
2018-09-20T10:42:50.850Z,2.57
2018-09-20T10:45:20.011Z,2.90
2018-09-20T10:47:48.908Z,3.53
2018-09-20T10:50:17.777Z,3.00
2018-09-20T10:52:47.134Z,3.10
2018-09-20T10:55:17.083Z,2.87
2018-09-20T10:57:46.094Z,3.30
2018-09-20T11:00:15.498Z,3.10
2018-09-20T11:02:44.536Z,2.97
2018-09-20T11:05:13.465Z,2.93
2018-09-20T11:07:43.243Z,3.87
2018-09-20T11:10:12.972Z,3.20
2018-09-20T11:12:42.345Z,2.83
2018-09-20T11:15:11.719Z,2.97
2018-09-20T11:17:41.352Z,2.90
2018-09-20T11:20:10.635Z,2.80
2018-09-20T11:22:39.623Z,3.30
2018-09-20T11:25:08.845Z,3.20
2018-09-20T11:27:37.795Z,2.70
2018-09-20T11:30:07.037Z,2.97
2018-09-20T11:32:36.016Z,2.57
2018-09-20T11:35:05.355Z,2.93
2018-09-20T11:37:34.660Z,2.70
2018-09-20T11:40:03.541Z,2.70
2018-09-20T11:42:32.456Z,2.80
2018-09-20T11:45:01.444Z,3.37
2018-09-20T11:47:30.383Z,2.50
2018-09-20T11:49:59.336Z,2.33
2018-09-20T11:52:28.532Z,2.93
2018-09-20T11:54:57.546Z,3.10
2018-09-20T11:57:26.524Z,2.73
2018-09-20T11:59:55.703Z,2.47
2018-09-20T12:02:24.741Z,2.70
2018-09-20T12:04:53.705Z,2.50
2018-09-20T12:07:23.453Z,2.73
2018-09-20T12:09:52.525Z,2.27
2018-09-20T12:12:21.593Z,2.90
2018-09-20T12:14:50.757Z,3.10
2018-09-20T12:17:19.749Z,3.13
2018-09-20T12:19:48.842Z,2.50
2018-09-20T12:22:18.333Z,2.30
2018-09-20T12:27:53.551Z,2.20
2018-09-20T12:30:23.012Z,2.30
2018-09-20T12:32:51.975Z,1.80
2018-09-20T12:35:21.108Z,2.03
2018-09-20T12:37:50.014Z,2.40
2018-09-20T12:40:19.081Z,2.30
2018-09-20T12:42:48.670Z,1.70
2018-09-20T12:45:17.520Z,2.00
2018-09-20T12:47:46.857Z,1.90
2018-09-20T12:50:16.021Z,2.10
2018-09-20T12:52:45.304Z,1.93
2018-09-20T12:55:14.244Z,1.53
2018-09-20T12:57:43.895Z,1.93
2018-09-20T13:00:13.380Z,1.60
2018-09-20T13:02:42.348Z,2.03
2018-09-20T13:05:11.484Z,1.73
2018-09-20T13:07:40.527Z,1.87
2018-09-20T13:10:09.531Z,1.60
2018-09-20T13:12:38.613Z,1.77
2018-09-20T13:15:07.928Z,1.83
2018-09-20T13:17:36.880Z,1.67
2018-09-20T13:20:06.446Z,1.77
2018-09-20T13:22:35.360Z,1.90
2018-09-20T13:25:04.502Z,1.70
2018-09-20T13:27:33.595Z,1.93
2018-09-20T13:30:02.732Z,1.67
2018-09-20T13:32:31.836Z,1.70
2018-09-20T13:35:00.900Z,1.50
2018-09-20T13:37:29.946Z,1.57
2018-09-20T13:39:59.047Z,2.07
2018-09-20T13:42:28.234Z,1.70
2018-09-20T13:44:58.657Z,1.77
2018-09-20T13:47:27.808Z,1.70
2018-09-20T13:49:57.029Z,1.50
2018-09-20T13:52:26.082Z,1.90
2018-09-20T13:54:55.183Z,1.50
2018-09-20T13:57:24.624Z,1.47
2018-09-20T13:59:53.572Z,1.50
2018-09-20T14:02:22.553Z,1.50
2018-09-20T14:04:51.881Z,1.57
2018-09-20T14:07:20.850Z,1.93
2018-09-20T14:09:50.904Z,1.20
2018-09-20T14:12:20.548Z,1.37
2018-09-20T14:14:50.045Z,1.57
2018-09-20T14:17:19.161Z,1.53
2018-09-20T14:19:48.387Z,1.70
2018-09-20T14:22:17.372Z,1.63
2018-09-20T14:24:46.597Z,1.00
2018-09-20T14:27:15.646Z,1.20
2018-09-20T14:29:44.647Z,1.83
2018-09-20T14:32:13.801Z,2.27
2018-09-20T14:34:43.101Z,1.90
2018-09-20T14:37:12.139Z,1.57
2018-09-20T14:39:41.124Z,1.70
2018-09-20T14:42:10.343Z,1.57
2018-09-20T14:44:39.350Z,1.40
2018-09-20T14:47:08.512Z,1.77
2018-09-20T14:49:37.756Z,1.93
2018-09-20T14:52:06.799Z,2.03
2018-09-20T14:54:35.720Z,1.90
2018-09-20T14:57:05.130Z,2.20
2018-09-20T14:59:34.532Z,2.00
2018-09-20T15:02:03.569Z,1.73
2018-09-20T15:04:32.909Z,1.67
2018-09-20T15:07:01.935Z,1.47
2018-09-20T15:09:30.896Z,1.53
2018-09-20T15:12:00.621Z,1.80
2018-09-20T15:14:29.824Z,1.33
2018-09-20T15:16:58.833Z,1.23
2018-09-20T15:19:27.951Z,1.47
2018-09-20T15:21:56.945Z,1.40
2018-09-20T15:24:25.971Z,1.47
2018-09-20T15:26:55.722Z,1.57
2018-09-20T15:29:24.793Z,1.87
2018-09-20T15:31:54.165Z,2.30
2018-09-20T15:34:23.455Z,1.80
2018-09-20T15:36:52.650Z,1.90
2018-09-20T15:39:21.682Z,1.43
2018-09-20T15:41:50.888Z,1.57
2018-09-20T15:44:19.935Z,1.50
2018-09-20T15:46:48.912Z,1.57
2018-09-20T15:49:22.201Z,2.17
2018-09-20T15:51:51.283Z,2.33
2018-09-20T15:54:20.741Z,2.00
2018-09-20T15:56:49.836Z,2.10
2018-09-20T15:59:18.965Z,1.70
2018-09-20T16:01:48.387Z,1.73
2018-09-20T16:04:17.504Z,2.07
2018-09-20T16:10:12.473Z,1.70
2018-09-20T16:12:41.603Z,1.90
2018-09-20T16:15:10.691Z,1.77
2018-09-20T16:17:39.800Z,1.40
2018-09-20T16:20:09.660Z,2.00
2018-09-20T16:22:38.844Z,1.60
2018-09-20T16:25:08.473Z,1.73
2018-09-20T16:27:37.793Z,1.63
2018-09-20T16:32:36.922Z,1.63
2018-09-20T16:35:19.505Z,2.00
2018-09-20T16:38:00.481Z,1.90
2018-09-20T16:40:31.940Z,1.60
2018-09-20T16:43:01.649Z,2.00
2018-09-20T16:45:31.119Z,1.37
2018-09-20T16:48:00.188Z,1.27
2018-09-20T16:50:29.512Z,2.10
2018-09-20T16:52:58.894Z,1.47
2018-09-20T16:55:27.948Z,1.33
2018-09-20T16:57:57.121Z,1.60
2018-09-20T17:00:26.219Z,1.10
2018-09-20T17:02:55.192Z,1.70
2018-09-20T17:05:24.352Z,1.30
2018-09-20T17:07:53.598Z,1.70
2018-09-20T17:10:22.646Z,1.50
2018-09-20T17:12:51.651Z,1.53
2018-09-20T17:15:20.661Z,1.27
2018-09-20T17:17:49.653Z,1.37
2018-09-20T17:20:19.111Z,1.57
2018-09-20T17:22:48.129Z,1.27
2018-09-20T17:25:17.164Z,1.40
2018-09-20T17:27:46.888Z,1.20
2018-09-20T17:30:15.958Z,1.23
2018-09-20T17:32:45.467Z,1.37
2018-09-20T17:35:15.268Z,1.40
2018-09-20T17:37:45.739Z,1.17
2018-09-20T17:40:16.420Z,1.33
2018-09-20T17:42:46.763Z,1.30
2018-09-20T17:45:16.101Z,1.20
2018-09-20T17:47:45.657Z,1.03
2018-09-20T17:50:14.928Z,1.20
2018-09-20T17:52:44.208Z,1.60
2018-09-20T17:55:13.713Z,1.30
2018-09-20T17:57:43.274Z,0.80
2018-09-20T18:00:13.303Z,0.83
2018-09-20T18:02:42.750Z,1.13
2018-09-20T18:05:11.864Z,1.00
2018-09-20T18:07:40.845Z,0.97
2018-09-20T18:10:10.476Z,0.77
2018-09-20T18:12:39.519Z,1.10
2018-09-20T18:15:08.456Z,0.90
2018-09-20T18:17:37.840Z,0.80
2018-09-20T18:20:06.695Z,1.10
2018-09-20T18:22:36.099Z,1.10
2018-09-20T18:25:05.251Z,0.77
2018-09-20T18:27:34.141Z,0.90
2018-09-20T18:30:03.435Z,0.90
2018-09-20T18:32:32.911Z,0.63
2018-09-20T18:35:02.093Z,1.00
2018-09-20T18:37:32.773Z,1.00
2018-09-20T18:40:03.133Z,0.90
2018-09-20T18:42:32.354Z,0.60
2018-09-20T18:45:01.318Z,1.10
2018-09-20T18:47:30.627Z,1.00
2018-09-20T18:49:59.760Z,0.93
2018-09-20T18:52:28.655Z,1.03
2018-09-20T18:54:57.787Z,0.83
2018-09-20T18:57:26.779Z,0.50
2018-09-20T18:59:55.666Z,1.00
2018-09-20T19:02:26.052Z,0.80
2018-09-20T19:04:55.021Z,0.70
2018-09-20T19:07:24.267Z,0.60
2018-09-20T19:09:55.648Z,0.70
2018-09-20T19:12:24.579Z,0.80
2018-09-20T19:14:53.547Z,0.53
2018-09-20T19:17:22.832Z,0.70
2018-09-20T19:19:52.808Z,0.70
2018-09-20T19:22:21.856Z,0.60
2018-09-20T19:24:50.853Z,0.70
2018-09-20T19:27:19.880Z,0.63
2018-09-20T19:29:49.008Z,0.90
2018-09-20T19:32:18.405Z,0.57
2018-09-20T19:34:47.424Z,0.57
2018-09-20T19:37:17.296Z,0.70
2018-09-20T19:39:46.514Z,0.97
2018-09-20T19:42:16.686Z,0.90
2018-09-20T19:44:45.645Z,0.80
2018-09-20T19:47:14.790Z,0.80
2018-09-20T19:52:36.947Z,0.60
2018-09-20T19:55:06.268Z,0.90
2018-09-20T19:57:35.208Z,1.00
2018-09-20T20:00:04.808Z,1.00
2018-09-20T20:02:34.916Z,1.10
2018-09-20T20:05:03.976Z,1.07
2018-09-20T20:07:33.000Z,0.73
2018-09-20T20:10:02.544Z,0.80
2018-09-20T20:12:31.447Z,1.10
2018-09-20T20:15:00.716Z,1.03
2018-09-20T20:17:30.848Z,1.20
2018-09-20T20:19:59.924Z,1.37
2018-09-20T20:22:28.953Z,1.40
2018-09-20T20:24:58.373Z,1.50
2018-09-20T20:27:27.301Z,1.23
2018-09-20T20:29:56.395Z,1.30
2018-09-20T20:32:25.469Z,1.00
2018-09-20T20:34:54.484Z,1.10
2018-09-20T20:40:26.400Z,1.50
2018-09-20T20:42:56.304Z,1.30
2018-09-20T20:45:25.265Z,1.00
2018-09-20T20:47:54.380Z,1.17
2018-09-20T20:50:23.620Z,1.30
2018-09-20T20:52:52.571Z,1.10
2018-09-20T20:58:24.932Z,1.30
2018-09-20T21:00:54.176Z,1.40
2018-09-20T21:03:23.644Z,1.37
2018-09-20T21:05:52.710Z,1.37
2018-09-20T21:08:22.026Z,1.03
2018-09-20T21:10:51.131Z,0.93
2018-09-20T21:13:20.164Z,1.10
2018-09-20T21:15:49.312Z,1.10
2018-09-20T21:18:18.320Z,1.10
2018-09-20T21:20:47.627Z,1.27
2018-09-20T21:23:17.351Z,1.00
2018-09-20T21:25:46.439Z,0.83
2018-09-20T21:28:15.583Z,1.00
2018-09-20T21:30:44.955Z,1.07
2018-09-20T21:33:13.913Z,0.70
2018-09-20T21:35:43.714Z,1.00
2018-09-20T21:38:12.864Z,0.90
2018-09-20T21:40:42.065Z,0.97
2018-09-20T21:43:11.060Z,0.80
2018-09-20T21:45:40.204Z,0.80
2018-09-20T21:48:09.194Z,0.87
2018-09-20T21:50:38.166Z,0.70
2018-09-20T21:53:07.176Z,0.60
2018-09-20T21:55:36.068Z,0.70
2018-09-20T21:58:06.077Z,0.70
2018-09-20T22:00:35.221Z,0.60
2018-09-20T22:03:05.437Z,1.20
2018-09-20T22:05:35.512Z,1.10
2018-09-20T22:08:04.553Z,1.07
2018-09-20T22:10:33.461Z,1.17
2018-09-20T22:13:02.346Z,1.33
2018-09-20T22:15:31.736Z,1.17
2018-09-20T22:18:00.747Z,1.10
2018-09-20T22:20:30.979Z,0.70
2018-09-20T22:23:00.186Z,1.00
2018-09-20T22:25:29.059Z,0.63
2018-09-20T22:27:58.031Z,0.80
2018-09-20T22:30:27.705Z,0.80
2018-09-20T22:32:56.906Z,1.00
2018-09-20T22:35:26.100Z,1.23
2018-09-20T22:37:55.214Z,1.23
2018-09-20T22:40:24.149Z,1.50
2018-09-20T22:42:53.205Z,1.37
2018-09-20T22:45:22.269Z,1.07
2018-09-20T22:47:51.285Z,0.90
2018-09-20T22:50:20.243Z,0.70
2018-09-20T22:52:49.463Z,1.10
2018-09-20T22:55:18.481Z,1.07
2018-09-20T22:57:47.460Z,1.73
2018-09-20T23:00:20.607Z,1.70
2018-09-20T23:02:49.508Z,3.20
2018-09-20T23:05:18.588Z,2.87
2018-09-20T23:07:47.660Z,2.57
2018-09-20T23:10:16.621Z,2.47
2018-09-20T23:12:46.070Z,2.53
2018-09-20T23:15:14.941Z,4.00
2018-09-20T23:17:43.888Z,4.10
2018-09-20T23:20:12.960Z,4.50
2018-09-20T23:22:41.882Z,5.70
2018-09-20T23:25:10.843Z,5.43
2018-09-20T23:27:39.963Z,5.60
2018-09-20T23:30:08.994Z,5.70
2018-09-20T23:32:37.894Z,5.93
2018-09-20T23:35:07.451Z,6.47
2018-09-20T23:37:36.333Z,5.87
2018-09-20T23:40:05.266Z,5.93
2018-09-20T23:42:34.511Z,6.70
2018-09-20T23:45:03.475Z,7.87
2018-09-20T23:47:32.488Z,6.80
2018-09-20T23:50:01.746Z,7.37
2018-09-20T23:52:31.032Z,7.30
2018-09-20T23:54:59.930Z,7.87
2018-09-20T23:57:28.882Z,6.70
2018-09-20T23:59:57.746Z,7.10
